Time;durP1;ratioP1;P1;durP2;ratioP2;P2;SDS_P1;SDS_P2;PMS_P1;PMS_P2;Temp;Humidity;BMP_temperature;BMP_pressure;BME280_temperature;BME280_humidity;BME280_pressure;Samples;Min_cycle;Max_cycle;Signal;HPM_P1;HPM_P2
2022/08/19 00:01:46;;;;;;;2.80;2.60;;;19.00;99.90;;;;;;4866439;29;20049;-84
2022/08/19 00:04:15;;;;;;;3.10;2.90;;;19.00;99.90;;;;;;4880334;29;20033;-84
2022/08/19 00:06:43;;;;;;;2.85;2.65;;;19.00;99.90;;;;;;4869131;29;20033;-84
2022/08/19 00:09:14;;;;;;;3.38;3.08;;;18.90;99.90;;;;;;4846471;29;20049;-85
2022/08/19 00:11:41;;;;;;;4.60;3.78;;;18.90;99.90;;;;;;4853305;29;20057;-84
2022/08/19 00:14:11;;;;;;;5.65;5.10;;;18.90;99.90;;;;;;4862283;29;20400;-85
2022/08/19 00:16:39;;;;;;;12.15;9.05;;;18.80;99.90;;;;;;4862951;29;20037;-85
2022/08/19 00:19:06;;;;;;;8.13;7.32;;;18.80;99.90;;;;;;4861111;29;20038;-85
2022/08/19 00:21:38;;;;;;;6.97;6.35;;;18.80;99.90;;;;;;4877293;29;20692;-85
2022/08/19 00:24:04;;;;;;;5.95;5.35;;;18.80;99.90;;;;;;4848756;29;20041;-86
2022/08/19 00:26:31;;;;;;;4.63;4.18;;;18.80;99.90;;;;;;4863695;29;20029;-85
2022/08/19 00:29:04;;;;;;;4.10;3.70;;;18.80;99.90;;;;;;4864311;29;20669;-86
2022/08/19 00:31:31;;;;;;;3.85;3.47;;;18.80;99.90;;;;;;4853038;29;20033;-84
2022/08/19 00:33:57;;;;;;;4.97;4.57;;;18.70;99.90;;;;;;4862549;29;20488;-85
2022/08/19 00:36:24;;;;;;;4.53;4.10;;;18.70;99.90;;;;;;4862344;29;20030;-85
2022/08/19 00:38:51;;;;;;;4.95;4.45;;;18.70;99.90;;;;;;4846960;29;20508;-85
2022/08/19 00:41:21;;;;;;;5.35;4.85;;;18.60;99.90;;;;;;4862397;29;20030;-83
2022/08/19 00:44:06;;;;;;;4.00;3.67;;;18.60;99.90;;;;;;4865002;29;20036;-82
2022/08/19 00:46:36;;;;;;;5.60;4.63;;;18.60;99.90;;;;;;4864116;29;20064;-84
2022/08/19 00:49:09;;;;;;;4.20;3.80;;;18.60;99.90;;;;;;4863609;29;20041;-84
2022/08/19 00:51:36;;;;;;;5.70;4.68;;;18.50;99.90;;;;;;4848801;29;20034;-84
2022/08/19 00:54:03;;;;;;;5.45;4.97;;;18.50;99.90;;;;;;4863069;29;20025;-84
2022/08/19 00:56:31;;;;;;;5.07;4.68;;;18.50;99.90;;;;;;4850059;29;20064;-84
2022/08/19 00:58:58;;;;;;;5.68;4.75;;;18.50;99.90;;;;;;4891789;29;20056;-85
2022/08/19 01:01:25;;;;;;;4.53;4.13;;;18.40;99.90;;;;;;4879293;29;20052;-84
2022/08/19 01:03:51;;;;;;;4.35;3.92;;;18.40;99.90;;;;;;4864747;29;20499;-85
2022/08/19 01:06:17;;;;;;;4.38;3.97;;;18.40;99.90;;;;;;4866544;29;20037;-84
2022/08/19 01:08:44;;;;;;;4.57;4.00;;;18.40;99.90;;;;;;4869378;29;20040;-84
2022/08/19 01:11:12;;;;;;;5.70;4.78;;;18.40;99.90;;;;;;4881373;29;20486;-84
2022/08/19 01:13:39;;;;;;;5.47;5.00;;;18.30;99.90;;;;;;4849527;29;20041;-84
2022/08/19 01:16:09;;;;;;;5.07;4.55;;;18.30;99.90;;;;;;4845356;29;20543;-83
2022/08/19 01:18:40;;;;;;;4.85;4.35;;;18.30;99.90;;;;;;4864058;29;20041;-84
2022/08/19 01:21:36;;;;;;;5.20;4.57;;;18.30;99.90;;;;;;4877039;29;20050;-83
2022/08/19 01:24:03;;;;;;;5.13;4.63;;;18.20;99.90;;;;;;4860531;29;20508;-84
2022/08/19 01:26:30;;;;;;;6.10;5.07;;;18.20;99.90;;;;;;4845879;29;20539;-83
2022/08/19 01:28:58;;;;;;;5.90;5.30;;;18.20;99.90;;;;;;4848779;29;20045;-84
2022/08/19 01:31:30;;;;;;;5.82;5.32;;;18.20;99.90;;;;;;4867705;29;20526;-84
2022/08/19 01:33:58;;;;;;;5.60;4.93;;;18.20;99.90;;;;;;4865551;29;20048;-84
2022/08/19 01:36:46;;;;;;;5.72;5.22;;;18.20;99.90;;;;;;4863686;29;20030;-84
2022/08/19 01:39:20;;;;;;;5.60;5.03;;;18.20;99.90;;;;;;4845776;29;20037;-85
2022/08/19 01:41:47;;;;;;;5.18;4.72;;;18.30;99.90;;;;;;4848823;29;20037;-84
2022/08/19 01:44:14;;;;;;;5.15;4.75;;;18.30;99.90;;;;;;4876457;29;20037;-85
2022/08/19 01:46:42;;;;;;;4.93;4.53;;;18.40;99.90;;;;;;4866241;29;20076;-84
2022/08/19 01:49:08;;;;;;;5.82;5.28;;;18.50;99.90;;;;;;4844107;29;20045;-85
2022/08/19 01:51:35;;;;;;;5.20;4.55;;;18.60;99.90;;;;;;4860794;29;20033;-84
2022/08/19 01:54:02;;;;;;;4.75;4.35;;;18.70;99.90;;;;;;4860014;29;20034;-84
2022/08/19 01:56:29;;;;;;;5.85;5.35;;;18.70;99.90;;;;;;4846151;29;20037;-85
2022/08/19 01:59:03;;;;;;;6.45;5.35;;;18.80;99.90;;;;;;4845129;29;20044;-84
2022/08/19 02:01:31;;;;;;;6.97;6.25;;;18.80;99.90;;;;;;4860197;29;20037;-85
2022/08/19 02:04:00;;;;;;;5.70;5.20;;;18.80;99.90;;;;;;4858714;29;20049;-84
2022/08/19 02:06:27;;;;;;;6.53;4.93;;;18.80;99.90;;;;;;4847517;29;20056;-84
2022/08/19 02:08:54;;;;;;;5.63;4.97;;;18.80;99.90;;;;;;4845182;29;20057;-84
2022/08/19 02:11:26;;;;;;;5.45;4.95;;;18.80;99.90;;;;;;4861987;29;20496;-84
2022/08/19 02:13:53;;;;;;;;;;;18.80;99.90;;;;;;4874295;29;20037;-84
2022/08/19 02:16:20;;;;;;;4.50;3.92;;;18.90;99.90;;;;;;4858560;29;19926;-84
2022/08/19 02:18:48;;;;;;;5.50;4.93;;;18.90;99.90;;;;;;4878710;29;20045;-85
2022/08/19 02:21:19;;;;;;;6.35;5.35;;;18.90;99.90;;;;;;4845691;29;20037;-84
2022/08/19 02:23:46;;;;;;;5.40;4.53;;;18.90;99.90;;;;;;4866300;29;20538;-84
2022/08/19 02:26:13;;;;;;;6.05;5.38;;;18.90;99.90;;;;;;4860416;29;20049;-84
2022/08/19 02:28:41;;;;;;;6.60;5.40;;;18.80;99.90;;;;;;4850216;29;20052;-84
2022/08/19 02:31:14;;;;;;;5.57;5.07;;;18.80;99.90;;;;;;4864686;29;20033;-84
2022/08/19 02:33:41;;;;;;;5.72;5.22;;;18.70;99.90;;;;;;4863467;29;20052;-84
2022/08/19 02:36:09;;;;;;;6.13;5.55;;;18.70;99.90;;;;;;4846505;29;20034;-84
2022/08/19 02:38:36;;;;;;;7.25;6.40;;;18.60;99.90;;;;;;4867369;23;20052;-84
2022/08/19 02:41:12;;;;;;;6.18;5.57;;;18.50;99.90;;;;;;4902550;29;20405;-84
2022/08/19 02:43:40;;;;;;;5.60;5.10;;;18.40;99.90;;;;;;4918251;29;20025;-83
2022/08/19 02:46:17;;;;;;;6.60;5.93;;;18.40;99.90;;;;;;4888483;29;20036;-84
2022/08/19 02:48:43;;;;;;;6.22;5.63;;;18.30;99.90;;;;;;4905314;29;20391;-84
2022/08/19 02:51:16;;;;;;;6.55;5.93;;;18.30;99.90;;;;;;4890873;29;20059;-84
2022/08/19 02:53:43;;;;;;;6.18;5.63;;;18.20;99.90;;;;;;4890405;29;20032;-82
2022/08/19 02:56:09;;;;;;;4.70;4.03;;;18.20;99.90;;;;;;4886279;29;20028;-83
2022/08/19 02:58:35;;;;;;;4.50;3.85;;;18.10;99.90;;;;;;4904413;29;20435;-84
2022/08/19 03:01:02;;;;;;;5.20;4.70;;;18.10;99.90;;;;;;4887062;29;20040;-83
2022/08/19 03:03:28;;;;;;;4.97;4.57;;;18.00;99.90;;;;;;4887064;29;20300;-82
2022/08/19 03:06:05;;;;;;;6.30;4.93;;;18.00;99.90;;;;;;4898895;29;20033;-82
2022/08/19 03:08:32;;;;;;;6.90;6.22;;;18.00;99.90;;;;;;4899968;29;20036;-83
2022/08/19 03:10:59;;;;;;;6.18;5.57;;;18.00;99.90;;;;;;4895518;29;20032;-83
2022/08/19 03:13:25;;;;;;;7.35;6.20;;;18.00;99.90;;;;;;4897679;29;20025;-83
2022/08/19 03:15:51;;;;;;;7.38;6.60;;;18.00;99.90;;;;;;4902902;29;20125;-83
2022/08/19 03:18:17;;;;;;;8.27;7.45;;;18.00;99.90;;;;;;4896636;29;20039;-82
2022/08/19 03:20:47;;;;;;;5.63;5.15;;;17.90;99.90;;;;;;4896213;29;20032;-83
2022/08/19 03:23:15;;;;;;;7.32;6.38;;;17.90;99.90;;;;;;4882898;29;20029;-83
2022/08/19 03:25:46;;;;;;;6.82;6.13;;;17.90;99.90;;;;;;4885463;29;20036;-83
2022/08/19 03:28:14;;;;;;;6.53;5.88;;;17.90;99.90;;;;;;4903582;29;20062;-83
2022/08/19 03:30:43;;;;;;;8.15;7.00;;;17.80;99.90;;;;;;4900744;29;20040;-83
2022/08/19 03:33:11;;;;;;;8.05;7.30;;;17.80;99.90;;;;;;4898691;29;20507;-83
2022/08/19 03:35:38;;;;;;;7.97;7.18;;;17.80;99.90;;;;;;4874512;29;20029;-83
2022/08/19 03:38:06;;;;;;;7.97;7.22;;;17.70;99.90;;;;;;4899489;29;20036;-82
2022/08/19 03:40:36;;;;;;;7.25;6.18;;;17.70;99.90;;;;;;4868793;29;20043;-83
2022/08/19 03:43:03;;;;;;;6.45;5.85;;;17.70;99.90;;;;;;4879064;29;20040;-83
2022/08/19 03:45:29;;;;;;;6.97;6.28;;;17.60;99.90;;;;;;4901070;29;20035;-82
2022/08/19 03:47:55;;;;;;;6.45;5.85;;;17.60;99.90;;;;;;4903114;29;20383;-83
2022/08/19 03:50:21;;;;;;;8.90;6.47;;;17.50;99.90;;;;;;4909558;29;20043;-82
2022/08/19 03:52:50;;;;;;;6.45;5.85;;;17.50;99.90;;;;;;4913356;29;20035;-82
2022/08/19 03:55:17;;;;;;;7.75;6.95;;;17.50;99.90;;;;;;4896181;29;20055;-83
2022/08/19 03:57:45;;;;;;;7.57;6.95;;;17.50;99.90;;;;;;4911655;29;20028;-83
2022/08/19 04:00:12;;;;;;;7.68;7.00;;;17.50;99.90;;;;;;4891271;29;20506;-83
2022/08/19 04:02:39;;;;;;;6.55;5.95;;;17.50;99.90;;;;;;4909108;29;20053;-82
2022/08/19 04:05:07;;;;;;;9.70;8.18;;;17.40;99.90;;;;;;4905088;29;20032;-83
2022/08/19 04:07:34;;;;;;;9.40;8.38;;;17.40;99.90;;;;;;4906844;29;20048;-83
2022/08/19 04:10:00;;;;;;;9.75;8.85;;;17.40;99.90;;;;;;4905829;29;20047;-83
2022/08/19 04:12:26;;;;;;;10.20;8.27;;;17.40;99.90;;;;;;4890510;29;20040;-83
2022/08/19 04:14:53;;;;;;;8.98;8.13;;;17.40;99.90;;;;;;4891982;29;20037;-83
2022/08/19 04:17:19;;;;;;;11.75;8.25;;;17.40;99.90;;;;;;4876859;29;20428;-84
2022/08/19 04:19:45;;;;;;;8.75;7.95;;;17.40;99.90;;;;;;4904873;29;20043;-84
2022/08/19 04:22:11;;;;;;;8.27;7.53;;;17.30;99.90;;;;;;4900084;29;20039;-84
2022/08/19 04:24:38;;;;;;;8.63;7.60;;;17.30;99.90;;;;;;4902465;29;20040;-84
2022/08/19 04:27:05;;;;;;;8.23;6.70;;;17.30;99.90;;;;;;4876687;29;20059;-84
2022/08/19 04:29:32;;;;;;;7.80;6.63;;;17.30;99.90;;;;;;4904023;29;20036;-84
2022/08/19 04:31:59;;;;;;;6.57;5.80;;;17.20;99.90;;;;;;4905071;29;20032;-84
2022/08/19 04:34:28;;;;;;;8.40;6.18;;;17.20;99.90;;;;;;4875505;29;20035;-84
2022/08/19 04:36:57;;;;;;;7.82;6.75;;;17.10;99.90;;;;;;4887199;29;20040;-84
2022/08/19 04:42:38;;;;;;;9.13;8.23;;;17.10;99.90;;;;;;4905317;29;20056;-83
2022/08/19 04:45:03;;;;;;;8.40;7.68;;;17.10;99.90;;;;;;4915535;29;20033;-84
2022/08/19 04:47:30;;;;;;;8.38;7.47;;;17.10;99.90;;;;;;4906276;29;20044;-84
2022/08/19 04:49:57;;;;;;;7.97;7.13;;;17.10;99.90;;;;;;4878919;29;20043;-85
2022/08/19 04:52:23;;;;;;;7.63;6.90;;;17.10;99.90;;;;;;4888922;29;20036;-84
2022/08/19 04:54:49;;;;;;;6.90;6.30;;;17.00;99.90;;;;;;4907126;29;20033;-84
2022/08/19 04:57:16;;;;;;;7.32;6.55;;;17.10;99.90;;;;;;4905396;29;20036;-83
2022/08/19 04:59:42;;;;;;;8.95;6.75;;;17.10;99.90;;;;;;4902072;29;20024;-84
2022/08/19 05:02:08;;;;;;;7.85;7.15;;;17.10;99.90;;;;;;4917166;29;20036;-83
2022/08/19 05:04:38;;;;;;;7.95;7.15;;;17.10;99.90;;;;;;4889329;29;20036;-84
2022/08/19 05:07:06;;;;;;;7.32;6.53;;;17.10;99.90;;;;;;4906130;29;20136;-84
2022/08/19 05:09:32;;;;;;;8.45;6.97;;;17.10;99.90;;;;;;4891751;29;20044;-84
2022/08/19 05:12:00;;;;;;;7.18;6.50;;;17.20;99.90;;;;;;4903291;29;20035;-84
2022/08/19 05:14:26;;;;;;;7.43;6.72;;;17.10;99.90;;;;;;4901712;29;20033;-83
2022/08/19 05:16:52;;;;;;;7.95;7.25;;;17.20;99.90;;;;;;4917888;29;20128;-84
2022/08/19 05:24:48;;;;;;;8.45;7.65;;;17.30;99.90;;;;;;4897534;29;20051;-84
2022/08/19 05:27:15;;;;;;;8.20;7.32;;;17.30;99.90;;;;;;4900126;29;20704;-83
2022/08/19 05:29:41;;;;;;;7.55;6.82;;;17.40;99.90;;;;;;4902766;29;20032;-84
2022/08/19 05:32:08;;;;;;;7.75;6.43;;;17.40;99.90;;;;;;4900235;29;20040;-84
2022/08/19 05:34:35;;;;;;;7.22;6.53;;;17.40;99.90;;;;;;4891567;29;20032;-84
2022/08/19 05:37:02;;;;;;;7.68;6.97;;;17.50;99.90;;;;;;4900986;29;20032;-84
2022/08/19 05:39:30;;;;;;;9.20;7.03;;;17.50;99.90;;;;;;4887901;29;20044;-84
2022/08/19 05:42:00;;;;;;;7.88;7.13;;;17.60;99.90;;;;;;4904033;29;20036;-84
2022/08/19 05:44:31;;;;;;;8.77;7.93;;;17.70;99.90;;;;;;4911892;29;20039;-83
2022/08/19 05:47:04;;;;;;;9.63;8.73;;;17.70;99.90;;;;;;4907951;29;20041;-85
2022/08/19 05:49:32;;;;;;;9.38;8.40;;;17.90;99.90;;;;;;4886254;29;20036;-85
2022/08/19 05:52:00;;;;;;;13.00;11.02;;;18.00;99.90;;;;;;4885828;29;20614;-85
2022/08/19 05:54:30;;;;;;;9.90;8.90;;;18.10;99.90;;;;;;4882498;29;20044;-84
2022/08/19 05:56:57;;;;;;;10.32;9.32;;;18.30;99.90;;;;;;4884310;29;20040;-86
2022/08/19 05:59:25;;;;;;;11.32;10.15;;;18.40;99.90;;;;;;4871077;29;20518;-85
2022/08/19 06:01:55;;;;;;;10.32;9.32;;;18.60;99.90;;;;;;4884463;29;20036;-86
2022/08/19 06:04:22;;;;;;;9.88;8.95;;;18.80;99.90;;;;;;4868184;29;20029;-85
2022/08/19 06:06:51;;;;;;;10.27;9.18;;;19.00;99.90;;;;;;4900171;29;20037;-85
2022/08/19 06:09:21;;;;;;;9.88;8.82;;;19.20;99.90;;;;;;4879245;29;20057;-85
2022/08/19 06:11:53;;;;;;;11.90;10.80;;;19.40;99.90;;;;;;4900627;29;20024;-85
2022/08/19 06:14:24;;;;;;;8.75;7.93;;;19.50;99.90;;;;;;4898056;29;20052;-84
2022/08/19 06:16:53;;;;;;;10.07;9.18;;;19.70;99.90;;;;;;4886060;29;20036;-86
2022/08/19 06:19:31;;;;;;;12.05;10.85;;;19.90;99.90;;;;;;4900192;29;20052;-85
2022/08/19 06:21:59;;;;;;;15.85;14.25;;;20.00;99.90;;;;;;4887523;29;20047;-85
2022/08/19 06:24:28;;;;;;;13.38;12.07;;;20.20;99.90;;;;;;4904203;29;20033;-85
2022/08/19 06:26:57;;;;;;;13.02;11.73;;;20.30;99.90;;;;;;4878998;29;20040;-85
2022/08/19 06:29:26;;;;;;;14.80;13.30;;;20.40;99.90;;;;;;4903400;29;20029;-85
2022/08/19 06:31:55;;;;;;;15.40;13.80;;;20.60;99.90;;;;;;4884521;29;20048;-86
2022/08/19 06:34:24;;;;;;;17.33;13.57;;;20.70;99.90;;;;;;4887519;29;20048;-86
2022/08/19 06:36:54;;;;;;;15.93;14.32;;;20.80;99.90;;;;;;4864520;29;20091;-85
2022/08/19 06:39:25;;;;;;;14.60;13.20;;;20.90;99.90;;;;;;4901528;29;20051;-86
2022/08/19 06:41:54;;;;;;;18.48;16.23;;;21.10;99.90;;;;;;4910520;29;20028;-85
2022/08/19 06:44:23;;;;;;;16.88;14.90;;;21.20;99.90;;;;;;4903458;29;20040;-85
2022/08/19 06:46:50;;;;;;;16.50;14.70;;;21.50;99.90;;;;;;4871262;29;20051;-86
2022/08/19 06:49:17;;;;;;;17.85;15.65;;;21.70;99.90;;;;;;4870813;29;20039;-85
2022/08/19 06:51:47;;;;;;;17.00;15.30;;;21.80;99.90;;;;;;4890015;29;20028;-86
2022/08/19 06:54:15;;;;;;;16.75;15.05;;;22.00;99.90;;;;;;4869736;29;20033;-86
2022/08/19 06:56:47;;;;;;;21.33;19.13;;;22.00;99.90;;;;;;4888164;29;20055;-86
2022/08/19 06:59:17;;;;;;;17.38;15.48;;;22.10;99.90;;;;;;4870740;29;20028;-85
2022/08/19 07:01:51;;;;;;;19.05;16.02;;;22.20;99.90;;;;;;4875022;29;20079;-86
2022/08/19 07:04:23;;;;;;;30.67;22.35;;;22.40;99.90;;;;;;4908117;29;20036;-85
2022/08/19 07:07:06;;;;;;;38.22;29.50;;;22.50;99.90;;;;;;4893283;29;20045;-84
2022/08/19 07:09:32;;;;;;;33.20;24.60;;;22.50;99.90;;;;;;4906784;29;20044;-85
2022/08/19 07:11:58;;;;;;;34.50;24.90;;;22.50;99.90;;;;;;4903347;29;20507;-84
2022/08/19 07:14:27;;;;;;;28.13;20.52;;;22.50;99.90;;;;;;4893894;29;20029;-85
2022/08/19 07:16:56;;;;;;;29.42;22.55;;;22.50;99.90;;;;;;4900726;29;20042;-85
2022/08/19 07:19:24;;;;;;;33.67;23.58;;;22.50;99.90;;;;;;4902656;29;20052;-85
2022/08/19 07:21:53;;;;;;;35.33;25.88;;;22.50;99.90;;;;;;4901482;29;20047;-85
2022/08/19 07:24:23;;;;;;;42.72;31.17;;;22.50;99.90;;;;;;4918882;29;20024;-85
2022/08/19 07:26:51;;;;;;;45.47;31.92;;;22.50;99.90;;;;;;4893098;29;20032;-85
2022/08/19 07:29:19;;;;;;;44.75;32.20;;;22.50;99.90;;;;;;4878845;29;20037;-85
2022/08/19 07:31:45;;;;;;;38.30;28.20;;;22.50;99.90;;;;;;4903714;29;20036;-85
2022/08/19 07:34:14;;;;;;;37.38;27.88;;;22.50;99.90;;;;;;4901522;29;20045;-85
2022/08/19 07:36:42;;;;;;;50.15;35.13;;;22.50;99.90;;;;;;4891298;29;20032;-85
2022/08/19 07:39:13;;;;;;;38.42;28.90;;;22.60;99.90;;;;;;4907093;29;20054;-85
2022/08/19 07:41:39;;;;;;;49.45;36.20;;;22.70;99.90;;;;;;4904248;29;20020;-85
2022/08/19 07:44:07;;;;;;;45.67;33.40;;;22.80;99.90;;;;;;4871909;29;20422;-84
2022/08/19 07:46:37;;;;;;;43.67;32.22;;;22.90;99.90;;;;;;4900153;29;20032;-85
2022/08/19 07:49:04;;;;;;;39.92;31.63;;;23.00;99.90;;;;;;4897473;29;20411;-85
2022/08/19 07:51:31;;;;;;;37.70;28.45;;;23.20;99.90;;;;;;4885339;29;20727;-85
2022/08/19 07:53:57;;;;;;;48.53;36.40;;;23.30;99.90;;;;;;4897301;29;20039;-86
2022/08/19 07:56:24;;;;;;;41.25;31.45;;;23.40;99.90;;;;;;4882045;29;20053;-86
2022/08/19 07:58:53;;;;;;;34.88;28.35;;;23.40;99.90;;;;;;4896298;29;20521;-85
2022/08/19 08:01:22;;;;;;;40.33;31.58;;;23.30;99.90;;;;;;4884867;29;20423;-86
2022/08/19 08:09:25;;;;;;;42.97;34.47;;;23.20;99.90;;;;;;4911106;29;20573;-85
2022/08/19 08:11:56;;;;;;;44.00;35.33;;;23.30;99.90;;;;;;4900310;29;20032;-85
2022/08/19 08:14:27;;;;;;;39.03;31.38;;;23.40;99.90;;;;;;4898301;29;20126;-85
2022/08/19 08:16:54;;;;;;;43.05;34.45;;;23.50;99.90;;;;;;4869856;29;20052;-84
2022/08/19 08:19:22;;;;;;;53.55;42.03;;;23.40;99.90;;;;;;4872295;29;20490;-86
2022/08/19 08:21:55;;;;;;;40.30;33.90;;;23.40;99.90;;;;;;4870204;29;20025;-84
2022/08/19 08:24:22;;;;;;;40.25;33.55;;;23.40;99.90;;;;;;4885674;29;20043;-86
2022/08/19 08:26:48;;;;;;;41.72;35.03;;;23.60;99.90;;;;;;4886072;29;20052;-85
2022/08/19 08:29:15;;;;;;;44.13;35.22;;;23.80;99.90;;;;;;4878782;29;20037;-86
2022/08/19 08:31:43;;;;;;;35.85;31.45;;;23.90;99.90;;;;;;4904340;29;20036;-85
2022/08/19 08:34:11;;;;;;;38.08;31.15;;;23.90;99.90;;;;;;4889187;29;20040;-85
2022/08/19 08:37:12;;;;;;;34.03;30.30;;;23.90;99.90;;;;;;4874885;29;20025;-85
2022/08/19 08:39:46;;;;;;;34.75;29.50;;;23.90;99.90;;;;;;4883748;23;20679;-85
2022/08/19 08:42:25;;;;;;;35.42;31.25;;;23.80;99.90;;;;;;4826404;29;20041;-86
2022/08/19 08:45:16;;;;;;;30.40;27.15;;;23.90;99.90;;;;;;4848440;29;20034;-84
2022/08/19 08:47:47;;;;;;;35.25;31.42;;;24.10;99.90;;;;;;4849081;29;20038;-85
2022/08/19 08:50:43;;;;;;;32.13;28.50;;;24.20;99.90;;;;;;4841990;29;20030;-86
2022/08/19 08:53:19;;;;;;;27.58;24.67;;;24.30;99.90;;;;;;4842628;29;20072;-84
2022/08/19 08:55:46;;;;;;;30.08;27.08;;;24.40;99.90;;;;;;4860483;29;20040;-84
2022/08/19 08:58:18;;;;;;;29.13;24.75;;;24.50;99.90;;;;;;4837411;29;20042;-82
2022/08/19 09:00:49;;;;;;;22.75;19.50;;;24.70;99.90;;;;;;4846539;29;20036;-83
2022/08/19 09:03:27;;;;;;;21.88;19.35;;;24.80;99.90;;;;;;4845811;29;20517;-85
2022/08/19 09:06:18;;;;;;;20.38;18.17;;;25.00;99.90;;;;;;4860273;29;20038;-84
2022/08/19 09:09:34;;;;;;;22.58;19.58;;;25.20;99.90;;;;;;4843171;29;20053;-85
2022/08/19 09:43:34;;;;;;;26.05;23.25;;;26.90;97.50;;;;;;4880567;29;20048;-87
2022/08/19 09:46:02;;;;;;;22.55;20.15;;;27.10;97.10;;;;;;4880807;29;20044;-84
2022/08/19 09:48:28;;;;;;;20.38;18.10;;;27.00;97.00;;;;;;4869842;29;20043;-83
2022/08/19 09:50:55;;;;;;;25.05;22.08;;;26.90;96.80;;;;;;4866966;29;20041;-83
2022/08/19 09:53:22;;;;;;;20.75;18.25;;;26.80;96.90;;;;;;4895526;29;20063;-82
2022/08/19 09:55:49;;;;;;;19.50;17.02;;;26.70;97.00;;;;;;4881815;29;20511;-81
2022/08/19 09:58:15;;;;;;;19.58;16.80;;;26.70;97.00;;;;;;4896701;29;20692;-84
2022/08/19 10:00:41;;;;;;;19.40;16.38;;;26.80;97.00;;;;;;4890207;29;20048;-83
2022/08/19 10:03:07;;;;;;;22.88;20.20;;;26.80;96.80;;;;;;4898169;29;20047;-83
2022/08/19 10:05:48;;;;;;;15.25;13.52;;;26.90;96.60;;;;;;4881989;29;20444;-82
2022/08/19 10:08:22;;;;;;;23.05;17.17;;;26.90;96.50;;;;;;4855567;29;20045;-82
2022/08/19 10:10:52;;;;;;;17.15;15.35;;;26.80;96.30;;;;;;4877634;29;20048;-84
2022/08/19 10:17:44;;;;;;;19.52;15.40;;;26.50;96.10;;;;;;4848328;29;20045;-83
2022/08/19 10:20:12;;;;;;;13.25;11.35;;;26.50;96.10;;;;;;4873012;29;20431;-84
2022/08/19 10:22:39;;;;;;;14.82;11.48;;;26.60;96.00;;;;;;4885109;29;20056;-83
2022/08/19 10:25:06;;;;;;;18.33;15.15;;;26.80;95.80;;;;;;4880297;29;20136;-83
2022/08/19 10:27:33;;;;;;;15.48;10.38;;;26.90;95.60;;;;;;4878533;29;20040;-84
2022/08/19 10:29:59;;;;;;;13.27;11.90;;;27.20;95.50;;;;;;4869413;29;20028;-84
2022/08/19 10:32:25;;;;;;;12.60;10.50;;;27.40;95.10;;;;;;4882874;29;20041;-84
2022/08/19 10:34:52;;;;;;;14.85;13.15;;;27.60;94.90;;;;;;4871740;29;20044;-84
2022/08/19 10:37:18;;;;;;;17.92;13.68;;;27.90;94.40;;;;;;4872467;29;20037;-84
2022/08/19 10:39:47;;;;;;;20.92;14.77;;;28.20;94.00;;;;;;4881009;29;20032;-84
2022/08/19 10:42:15;;;;;;;20.75;17.17;;;28.30;93.30;;;;;;4870309;29;20052;-83
2022/08/19 10:44:42;;;;;;;13.95;11.25;;;28.50;92.80;;;;;;4878386;29;20045;-83
2022/08/19 10:47:09;;;;;;;14.30;12.05;;;28.60;92.80;;;;;;4882081;29;20044;-83
2022/08/19 10:52:33;;;;;;;21.98;14.40;;;28.90;92.60;;;;;;4881621;29;20523;-83
2022/08/19 10:52:34;;;;;;;11.82;9.98;;;29.10;92.00;;;;;;4879069;29;20045;-83
2022/08/19 10:57:46;;;;;;;22.13;17.20;;;29.70;91.80;;;;;;4885927;29;20037;-84
2022/08/19 11:00:14;;;;;;;17.35;12.85;;;30.00;91.00;;;;;;4883361;29;20036;-85
2022/08/19 11:02:41;;;;;;;14.55;11.60;;;30.20;90.40;;;;;;4863089;29;20045;-83
2022/08/19 11:05:10;;;;;;;13.43;10.00;;;30.50;90.50;;;;;;4869582;29;20028;-85
2022/08/19 11:07:41;;;;;;;15.02;11.85;;;30.80;90.00;;;;;;4880174;29;20048;-82
2022/08/19 11:10:10;;;;;;;14.48;11.80;;;31.20;88.70;;;;;;4891550;29;20029;-83
2022/08/19 11:12:39;;;;;;;14.00;11.93;;;31.60;87.20;;;;;;4882509;29;20025;-83
2022/08/19 11:15:10;;;;;;;20.38;18.25;;;31.90;85.30;;;;;;4885572;29;20911;-82
2022/08/19 11:17:43;;;;;;;13.07;11.70;;;32.00;82.00;;;;;;4871079;29;20029;-80
2022/08/19 11:20:12;;;;;;;12.88;11.23;;;32.10;81.90;;;;;;4862717;29;20136;-82
2022/08/19 11:22:39;;;;;;;11.63;9.73;;;32.20;81.40;;;;;;4879514;29;20041;-82
2022/08/19 11:25:07;;;;;;;12.05;10.85;;;32.50;80.50;;;;;;4880331;29;20550;-82
2022/08/19 11:27:33;;;;;;;11.82;9.50;;;32.70;79.10;;;;;;4879434;29;20025;-82
2022/08/19 11:30:00;;;;;;;14.32;12.80;;;32.90;77.60;;;;;;4865599;29;20037;-83
2022/08/19 11:32:27;;;;;;;14.77;11.40;;;33.10;76.70;;;;;;4886366;29;20049;-82
2022/08/19 11:34:54;;;;;;;11.40;10.15;;;33.50;75.80;;;;;;4880417;29;20037;-82
2022/08/19 11:37:20;;;;;;;11.38;8.27;;;33.70;74.30;;;;;;4865957;29;20044;-83
2022/08/19 11:39:46;;;;;;;10.70;7.88;;;33.90;73.00;;;;;;4876852;29;20041;-82
2022/08/19 11:44:57;;;;;;;9.07;7.78;;;34.10;71.40;;;;;;4879710;29;20038;-82
2022/08/19 11:47:24;;;;;;;9.07;8.00;;;34.40;70.90;;;;;;4880665;29;20041;-82
2022/08/19 11:49:50;;;;;;;10.63;8.63;;;34.70;70.10;;;;;;4893853;29;20049;-84
2022/08/19 11:52:17;;;;;;;10.13;8.85;;;34.90;68.50;;;;;;4878625;29;20048;-82
2022/08/19 11:54:43;;;;;;;12.55;9.55;;;35.00;67.80;;;;;;4879445;29;20045;-82
2022/08/19 11:57:09;;;;;;;8.25;6.57;;;35.10;66.30;;;;;;4877637;29;20396;-82
2022/08/19 11:59:35;;;;;;;10.20;7.40;;;34.90;66.20;;;;;;4894290;29;20040;-83
2022/08/19 12:02:02;;;;;;;14.95;9.50;;;35.00;66.70;;;;;;4879456;29;20492;-81
2022/08/19 12:04:28;;;;;;;9.93;7.68;;;35.40;65.50;;;;;;4870916;29;20037;-82
2022/08/19 12:06:54;;;;;;;7.20;5.53;;;35.60;64.90;;;;;;4876751;29;20041;-82
2022/08/19 12:09:21;;;;;;;6.28;5.60;;;35.90;64.10;;;;;;4892883;29;20060;-82
2022/08/19 12:11:48;;;;;;;8.18;6.38;;;36.20;63.10;;;;;;4862478;29;20029;-82
2022/08/19 12:14:14;;;;;;;7.93;6.53;;;36.40;62.60;;;;;;4895092;29;20069;-83
2022/08/19 12:16:41;;;;;;;11.88;10.55;;;36.60;61.70;;;;;;4879430;29;20029;-83
2022/08/19 12:19:07;;;;;;;8.98;7.13;;;36.90;60.30;;;;;;4893819;29;20029;-80
2022/08/19 12:21:35;;;;;;;7.97;7.25;;;37.20;59.80;;;;;;4864564;29;20132;-80
2022/08/19 12:24:05;;;;;;;6.68;5.97;;;37.40;59.00;;;;;;4892160;29;20056;-81
2022/08/19 12:26:32;;;;;;;9.10;6.18;;;37.60;58.30;;;;;;4878744;29;20040;-81
2022/08/19 12:28:59;;;;;;;10.68;5.93;;;37.70;57.40;;;;;;4863691;29;20128;-81
2022/08/19 12:31:27;;;;;;;8.30;5.38;;;37.90;57.80;;;;;;4878949;29;20044;-82
2022/08/19 12:33:54;;;;;;;10.18;8.15;;;38.10;57.40;;;;;;4862684;29;20029;-81
2022/08/19 12:36:21;;;;;;;9.70;8.25;;;38.20;56.60;;;;;;4863707;29;20491;-81
2022/08/19 12:38:48;;;;;;;7.47;6.40;;;38.20;56.20;;;;;;4879610;29;20427;-82
2022/08/19 12:41:17;;;;;;;8.00;7.05;;;38.20;56.70;;;;;;4895007;29;20531;-81
2022/08/19 12:43:44;;;;;;;10.43;6.57;;;38.50;56.30;;;;;;4877879;29;20052;-82
2022/08/19 12:46:11;;;;;;;9.02;8.07;;;38.70;56.00;;;;;;4878640;29;20033;-82
2022/08/19 12:48:41;;;;;;;8.98;7.57;;;38.90;55.10;;;;;;4880870;29;20616;-81
2022/08/19 12:51:09;;;;;;;9.00;7.57;;;38.90;54.90;;;;;;4877892;29;20037;-81
2022/08/19 12:53:37;;;;;;;8.38;7.60;;;39.10;55.20;;;;;;4862381;29;20037;-82
2022/08/19 12:56:04;;;;;;;8.82;7.20;;;39.40;54.30;;;;;;4862709;29;20032;-81
2022/08/19 12:58:32;;;;;;;8.40;7.60;;;39.70;54.00;;;;;;4879889;29;20506;-83
2022/08/19 13:00:58;;;;;;;8.07;7.25;;;39.80;53.30;;;;;;4876194;29;20040;-82
2022/08/19 13:03:28;;;;;;;9.15;8.35;;;39.80;53.00;;;;;;4877407;29;20033;-81
2022/08/19 13:05:56;;;;;;;9.73;8.77;;;40.00;52.70;;;;;;4878403;29;20506;-82
2022/08/19 13:08:22;;;;;;;11.38;8.93;;;40.00;52.30;;;;;;4887357;29;20040;-81
2022/08/19 13:10:48;;;;;;;8.25;7.43;;;40.10;51.80;;;;;;4879347;29;20044;-81
2022/08/19 13:13:14;;;;;;;7.47;6.50;;;40.00;51.70;;;;;;4862494;29;20045;-80
2022/08/19 13:15:44;;;;;;;9.23;8.32;;;40.20;52.60;;;;;;4892487;29;20045;-82
2022/08/19 13:18:12;;;;;;;10.13;8.95;;;40.50;51.30;;;;;;4862130;29;20052;-81
2022/08/19 13:20:40;;;;;;;9.63;7.47;;;40.60;50.60;;;;;;4861829;29;20040;-81
2022/08/19 13:23:07;;;;;;;7.95;7.07;;;40.80;50.50;;;;;;4876607;29;20025;-80
2022/08/19 13:25:34;;;;;;;9.70;7.80;;;41.00;50.10;;;;;;4862264;29;20037;-81
2022/08/19 13:28:00;;;;;;;9.10;8.20;;;41.10;49.80;;;;;;4877777;29;20025;-82
2022/08/19 13:33:15;;;;;;;7.70;7.00;;;41.30;49.20;;;;;;4877457;29;20423;-81
2022/08/19 13:35:48;;;;;;;10.27;8.40;;;40.90;49.30;;;;;;4893375;29;20033;-82
2022/08/19 13:38:17;;;;;;;9.60;8.52;;;40.60;50.10;;;;;;4861340;29;20045;-81
2022/08/19 13:40:44;;;;;;;9.55;8.02;;;40.80;49.60;;;;;;4863153;29;20040;-80
2022/08/19 13:43:10;;;;;;;8.25;7.45;;;41.00;49.30;;;;;;4877222;29;20777;-81
2022/08/19 13:45:37;;;;;;;8.10;7.30;;;41.30;48.50;;;;;;4877858;29;20048;-81